sensor_id;sensor_type;location;lat;lon;timestamp;P1;durP1;ratioP1;P2;durP2;ratioP2
8622;SDS011;4349;47.552;8.904;2023-04-24T00:00:31;1.17;;;1.17;;
8622;SDS011;4349;47.552;8.904;2023-04-24T00:02:58;1.20;;;1.20;;
8622;SDS011;4349;47.552;8.904;2023-04-24T00:05:26;1.10;;;1.10;;
8622;SDS011;4349;47.552;8.904;2023-04-24T00:07:53;1.17;;;1.17;;
8622;SDS011;4349;47.552;8.904;2023-04-24T00:10:22;1.27;;;1.27;;
8622;SDS011;4349;47.552;8.904;2023-04-24T00:12:50;1.40;;;1.00;;
8622;SDS011;4349;47.552;8.904;2023-04-24T00:15:17;1.30;;;1.30;;
8622;SDS011;4349;47.552;8.904;2023-04-24T00:17:45;2.67;;;1.10;;
8622;SDS011;4349;47.552;8.904;2023-04-24T00:20:12;1.07;;;1.07;;
8622;SDS011;4349;47.552;8.904;2023-04-24T00:22:40;1.03;;;1.00;;
8622;SDS011;4349;47.552;8.904;2023-04-24T00:25:08;1.17;;;1.17;;
8622;SDS011;4349;47.552;8.904;2023-04-24T00:27:37;1.37;;;1.00;;
8622;SDS011;4349;47.552;8.904;2023-04-24T00:30:05;0.70;;;0.70;;
8622;SDS011;4349;47.552;8.904;2023-04-24T00:32:33;1.47;;;0.90;;
8622;SDS011;4349;47.552;8.904;2023-04-24T00:35:00;0.97;;;0.97;;
8622;SDS011;4349;47.552;8.904;2023-04-24T00:37:28;1.00;;;1.00;;
8622;SDS011;4349;47.552;8.904;2023-04-24T00:39:55;0.70;;;0.70;;
8622;SDS011;4349;47.552;8.904;2023-04-24T00:42:22;1.07;;;0.80;;
8622;SDS011;4349;47.552;8.904;2023-04-24T00:44:52;1.27;;;0.90;;
8622;SDS011;4349;47.552;8.904;2023-04-24T00:47:20;0.80;;;0.80;;
8622;SDS011;4349;47.552;8.904;2023-04-24T00:49:48;0.93;;;0.90;;
8622;SDS011;4349;47.552;8.904;2023-04-24T00:52:15;0.83;;;0.80;;
8622;SDS011;4349;47.552;8.904;2023-04-24T00:54:43;1.37;;;0.97;;
8622;SDS011;4349;47.552;8.904;2023-04-24T00:57:12;0.80;;;0.80;;
8622;SDS011;4349;47.552;8.904;2023-04-24T00:59:40;0.97;;;0.90;;
8622;SDS011;4349;47.552;8.904;2023-04-24T01:02:10;1.37;;;1.00;;
8622;SDS011;4349;47.552;8.904;2023-04-24T01:04:38;0.80;;;0.80;;
8622;SDS011;4349;47.552;8.904;2023-04-24T01:07:06;0.67;;;0.67;;
8622;SDS011;4349;47.552;8.904;2023-04-24T01:09:36;0.70;;;0.70;;
8622;SDS011;4349;47.552;8.904;2023-04-24T01:12:05;0.77;;;0.77;;
8622;SDS011;4349;47.552;8.904;2023-04-24T01:14:32;1.17;;;0.87;;
8622;SDS011;4349;47.552;8.904;2023-04-24T01:17:00;0.77;;;0.77;;
8622;SDS011;4349;47.552;8.904;2023-04-24T01:19:29;0.97;;;0.97;;
8622;SDS011;4349;47.552;8.904;2023-04-24T01:21:58;1.33;;;0.80;;
8622;SDS011;4349;47.552;8.904;2023-04-24T01:24:27;0.80;;;0.80;;
8622;SDS011;4349;47.552;8.904;2023-04-24T01:26:54;0.70;;;0.70;;
8622;SDS011;4349;47.552;8.904;2023-04-24T01:29:21;0.80;;;0.80;;
8622;SDS011;4349;47.552;8.904;2023-04-24T01:31:49;0.70;;;0.70;;
8622;SDS011;4349;47.552;8.904;2023-04-24T01:34:17;1.10;;;0.77;;
8622;SDS011;4349;47.552;8.904;2023-04-24T01:36:45;0.53;;;0.53;;
8622;SDS011;4349;47.552;8.904;2023-04-24T01:39:13;0.80;;;0.80;;
8622;SDS011;4349;47.552;8.904;2023-04-24T01:41:43;0.80;;;0.80;;
8622;SDS011;4349;47.552;8.904;2023-04-24T01:44:10;0.70;;;0.70;;
8622;SDS011;4349;47.552;8.904;2023-04-24T01:46:38;0.77;;;0.70;;
8622;SDS011;4349;47.552;8.904;2023-04-24T01:49:05;0.77;;;0.77;;
8622;SDS011;4349;47.552;8.904;2023-04-24T01:51:32;0.80;;;0.80;;
8622;SDS011;4349;47.552;8.904;2023-04-24T01:54:02;0.70;;;0.70;;
8622;SDS011;4349;47.552;8.904;2023-04-24T01:56:29;0.50;;;0.50;;
8622;SDS011;4349;47.552;8.904;2023-04-24T01:58:58;1.50;;;0.70;;
8622;SDS011;4349;47.552;8.904;2023-04-24T02:01:27;0.70;;;0.70;;
8622;SDS011;4349;47.552;8.904;2023-04-24T02:03:54;0.80;;;0.80;;
8622;SDS011;4349;47.552;8.904;2023-04-24T02:06:22;0.70;;;0.70;;
8622;SDS011;4349;47.552;8.904;2023-04-24T02:08:51;0.67;;;0.60;;
8622;SDS011;4349;47.552;8.904;2023-04-24T02:11:19;0.60;;;0.60;;
8622;SDS011;4349;47.552;8.904;2023-04-24T02:13:46;0.70;;;0.70;;
8622;SDS011;4349;47.552;8.904;2023-04-24T02:16:15;0.60;;;0.60;;
8622;SDS011;4349;47.552;8.904;2023-04-24T02:18:42;0.60;;;0.60;;
8622;SDS011;4349;47.552;8.904;2023-04-24T02:21:10;0.53;;;0.53;;
8622;SDS011;4349;47.552;8.904;2023-04-24T02:23:37;0.50;;;0.50;;
8622;SDS011;4349;47.552;8.904;2023-04-24T02:26:05;0.60;;;0.60;;
8622;SDS011;4349;47.552;8.904;2023-04-24T02:28:32;0.40;;;0.40;;
8622;SDS011;4349;47.552;8.904;2023-04-24T02:31:00;0.60;;;0.60;;
8622;SDS011;4349;47.552;8.904;2023-04-24T02:33:29;0.40;;;0.40;;
8622;SDS011;4349;47.552;8.904;2023-04-24T02:35:56;0.70;;;0.70;;
8622;SDS011;4349;47.552;8.904;2023-04-24T02:38:24;0.50;;;0.50;;
8622;SDS011;4349;47.552;8.904;2023-04-24T02:40:51;0.67;;;0.67;;
8622;SDS011;4349;47.552;8.904;2023-04-24T02:43:18;0.50;;;0.50;;
8622;SDS011;4349;47.552;8.904;2023-04-24T02:45:46;0.50;;;0.50;;
8622;SDS011;4349;47.552;8.904;2023-04-24T02:48:13;1.10;;;0.57;;
8622;SDS011;4349;47.552;8.904;2023-04-24T02:50:42;0.80;;;0.80;;
8622;SDS011;4349;47.552;8.904;2023-04-24T02:53:10;0.73;;;0.60;;
8622;SDS011;4349;47.552;8.904;2023-04-24T02:55:37;0.43;;;0.43;;
8622;SDS011;4349;47.552;8.904;2023-04-24T02:58:05;0.60;;;0.60;;
8622;SDS011;4349;47.552;8.904;2023-04-24T03:00:33;0.50;;;0.50;;
8622;SDS011;4349;47.552;8.904;2023-04-24T03:03:00;0.50;;;0.50;;
8622;SDS011;4349;47.552;8.904;2023-04-24T03:05:29;0.47;;;0.47;;
8622;SDS011;4349;47.552;8.904;2023-04-24T03:07:58;0.50;;;0.50;;
8622;SDS011;4349;47.552;8.904;2023-04-24T03:10:25;0.43;;;0.43;;
8622;SDS011;4349;47.552;8.904;2023-04-24T03:12:53;0.40;;;0.40;;
8622;SDS011;4349;47.552;8.904;2023-04-24T03:15:21;0.40;;;0.40;;
8622;SDS011;4349;47.552;8.904;2023-04-24T03:17:48;0.60;;;0.60;;
8622;SDS011;4349;47.552;8.904;2023-04-24T03:20:16;0.40;;;0.40;;
8622;SDS011;4349;47.552;8.904;2023-04-24T03:22:43;0.47;;;0.47;;
8622;SDS011;4349;47.552;8.904;2023-04-24T03:25:12;0.83;;;0.53;;
8622;SDS011;4349;47.552;8.904;2023-04-24T03:27:39;0.43;;;0.43;;
8622;SDS011;4349;47.552;8.904;2023-04-24T03:30:19;0.50;;;0.50;;
8622;SDS011;4349;47.552;8.904;2023-04-24T03:32:55;0.70;;;0.60;;
8622;SDS011;4349;47.552;8.904;2023-04-24T03:35:26;0.50;;;0.50;;
8622;SDS011;4349;47.552;8.904;2023-04-24T03:37:54;0.57;;;0.40;;
8622;SDS011;4349;47.552;8.904;2023-04-24T03:40:42;0.40;;;0.40;;
8622;SDS011;4349;47.552;8.904;2023-04-24T03:43:22;0.60;;;0.60;;
8622;SDS011;4349;47.552;8.904;2023-04-24T03:45:50;0.57;;;0.57;;
8622;SDS011;4349;47.552;8.904;2023-04-24T03:48:18;1.30;;;0.47;;
8622;SDS011;4349;47.552;8.904;2023-04-24T03:50:46;0.30;;;0.30;;
8622;SDS011;4349;47.552;8.904;2023-04-24T03:53:14;0.40;;;0.40;;
8622;SDS011;4349;47.552;8.904;2023-04-24T03:55:43;0.30;;;0.30;;
8622;SDS011;4349;47.552;8.904;2023-04-24T03:58:11;0.40;;;0.40;;
8622;SDS011;4349;47.552;8.904;2023-04-24T04:00:40;0.40;;;0.40;;
8622;SDS011;4349;47.552;8.904;2023-04-24T04:03:27;0.50;;;0.50;;
8622;SDS011;4349;47.552;8.904;2023-04-24T04:05:55;0.47;;;0.40;;
8622;SDS011;4349;47.552;8.904;2023-04-24T04:08:22;0.40;;;0.40;;
8622;SDS011;4349;47.552;8.904;2023-04-24T04:10:51;0.40;;;0.40;;
8622;SDS011;4349;47.552;8.904;2023-04-24T04:13:19;0.50;;;0.50;;
8622;SDS011;4349;47.552;8.904;2023-04-24T04:15:46;0.40;;;0.40;;
8622;SDS011;4349;47.552;8.904;2023-04-24T04:18:13;0.50;;;0.50;;
8622;SDS011;4349;47.552;8.904;2023-04-24T04:20:41;0.50;;;0.50;;
8622;SDS011;4349;47.552;8.904;2023-04-24T04:23:11;0.50;;;0.50;;
8622;SDS011;4349;47.552;8.904;2023-04-24T04:25:48;0.40;;;0.40;;
8622;SDS011;4349;47.552;8.904;2023-04-24T04:28:22;0.40;;;0.40;;
8622;SDS011;4349;47.552;8.904;2023-04-24T04:30:50;0.53;;;0.53;;
8622;SDS011;4349;47.552;8.904;2023-04-24T04:33:20;0.50;;;0.43;;
8622;SDS011;4349;47.552;8.904;2023-04-24T04:35:47;0.60;;;0.60;;
8622;SDS011;4349;47.552;8.904;2023-04-24T04:38:16;0.40;;;0.40;;
8622;SDS011;4349;47.552;8.904;2023-04-24T04:40:55;0.30;;;0.30;;
8622;SDS011;4349;47.552;8.904;2023-04-24T04:43:28;0.50;;;0.50;;
8622;SDS011;4349;47.552;8.904;2023-04-24T04:45:57;0.57;;;0.57;;
8622;SDS011;4349;47.552;8.904;2023-04-24T04:48:55;0.43;;;0.43;;
8622;SDS011;4349;47.552;8.904;2023-04-24T04:51:23;0.53;;;0.53;;
8622;SDS011;4349;47.552;8.904;2023-04-24T04:53:51;0.40;;;0.40;;
8622;SDS011;4349;47.552;8.904;2023-04-24T04:56:18;0.40;;;0.40;;
8622;SDS011;4349;47.552;8.904;2023-04-24T04:58:48;0.33;;;0.33;;
8622;SDS011;4349;47.552;8.904;2023-04-24T05:01:16;0.40;;;0.40;;
8622;SDS011;4349;47.552;8.904;2023-04-24T05:03:46;0.70;;;0.60;;
8622;SDS011;4349;47.552;8.904;2023-04-24T05:06:15;0.50;;;0.50;;
8622;SDS011;4349;47.552;8.904;2023-04-24T05:08:44;1.30;;;0.50;;
8622;SDS011;4349;47.552;8.904;2023-04-24T05:11:24;0.60;;;0.60;;
8622;SDS011;4349;47.552;8.904;2023-04-24T05:13:55;0.70;;;0.70;;
8622;SDS011;4349;47.552;8.904;2023-04-24T05:16:31;2.13;;;0.50;;
8622;SDS011;4349;47.552;8.904;2023-04-24T05:18:58;0.60;;;0.60;;
8622;SDS011;4349;47.552;8.904;2023-04-24T05:21:30;0.60;;;0.60;;
8622;SDS011;4349;47.552;8.904;2023-04-24T05:23:59;1.10;;;0.80;;
8622;SDS011;4349;47.552;8.904;2023-04-24T05:26:41;1.00;;;1.00;;
8622;SDS011;4349;47.552;8.904;2023-04-24T05:29:11;1.43;;;1.33;;
8622;SDS011;4349;47.552;8.904;2023-04-24T05:31:39;0.90;;;0.90;;
8622;SDS011;4349;47.552;8.904;2023-04-24T05:34:07;1.03;;;1.03;;
8622;SDS011;4349;47.552;8.904;2023-04-24T05:36:38;1.00;;;1.00;;
8622;SDS011;4349;47.552;8.904;2023-04-24T05:39:05;1.27;;;0.97;;
8622;SDS011;4349;47.552;8.904;2023-04-24T05:41:34;0.90;;;0.90;;
8622;SDS011;4349;47.552;8.904;2023-04-24T05:44:01;1.07;;;1.07;;
8622;SDS011;4349;47.552;8.904;2023-04-24T05:46:30;0.80;;;0.80;;
8622;SDS011;4349;47.552;8.904;2023-04-24T05:48:57;1.20;;;1.20;;
8622;SDS011;4349;47.552;8.904;2023-04-24T05:51:25;1.17;;;1.13;;
8622;SDS011;4349;47.552;8.904;2023-04-24T05:53:53;1.30;;;1.20;;
8622;SDS011;4349;47.552;8.904;2023-04-24T05:56:21;1.47;;;1.37;;
8622;SDS011;4349;47.552;8.904;2023-04-24T05:58:49;1.10;;;1.10;;
8622;SDS011;4349;47.552;8.904;2023-04-24T06:01:16;1.00;;;1.00;;
8622;SDS011;4349;47.552;8.904;2023-04-24T06:03:50;1.30;;;1.30;;
8622;SDS011;4349;47.552;8.904;2023-04-24T06:06:19;1.20;;;1.20;;
8622;SDS011;4349;47.552;8.904;2023-04-24T06:08:47;1.20;;;1.20;;
8622;SDS011;4349;47.552;8.904;2023-04-24T06:11:14;1.37;;;1.30;;
8622;SDS011;4349;47.552;8.904;2023-04-24T06:13:42;1.30;;;1.30;;
8622;SDS011;4349;47.552;8.904;2023-04-24T06:16:28;2.20;;;1.37;;
8622;SDS011;4349;47.552;8.904;2023-04-24T06:19:03;1.20;;;1.20;;
8622;SDS011;4349;47.552;8.904;2023-04-24T06:21:31;1.27;;;1.27;;
8622;SDS011;4349;47.552;8.904;2023-04-24T06:23:58;1.60;;;1.50;;
8622;SDS011;4349;47.552;8.904;2023-04-24T06:26:26;1.53;;;1.43;;
8622;SDS011;4349;47.552;8.904;2023-04-24T06:28:53;1.70;;;1.50;;
8622;SDS011;4349;47.552;8.904;2023-04-24T06:31:21;1.90;;;1.80;;
8622;SDS011;4349;47.552;8.904;2023-04-24T06:33:48;1.83;;;1.80;;
8622;SDS011;4349;47.552;8.904;2023-04-24T06:36:17;1.60;;;1.60;;
8622;SDS011;4349;47.552;8.904;2023-04-24T06:38:45;1.47;;;1.47;;
8622;SDS011;4349;47.552;8.904;2023-04-24T06:41:12;1.97;;;1.80;;
8622;SDS011;4349;47.552;8.904;2023-04-24T06:43:40;1.90;;;1.80;;
8622;SDS011;4349;47.552;8.904;2023-04-24T06:46:07;2.00;;;1.80;;
8622;SDS011;4349;47.552;8.904;2023-04-24T06:48:35;2.10;;;1.90;;
8622;SDS011;4349;47.552;8.904;2023-04-24T06:51:02;2.40;;;2.20;;
8622;SDS011;4349;47.552;8.904;2023-04-24T06:53:31;2.30;;;2.20;;
8622;SDS011;4349;47.552;8.904;2023-04-24T06:55:59;2.10;;;2.00;;
8622;SDS011;4349;47.552;8.904;2023-04-24T06:58:26;1.90;;;1.90;;
8622;SDS011;4349;47.552;8.904;2023-04-24T07:00:54;2.10;;;2.00;;
8622;SDS011;4349;47.552;8.904;2023-04-24T07:03:21;2.30;;;2.10;;
8622;SDS011;4349;47.552;8.904;2023-04-24T07:05:49;2.30;;;2.20;;
8622;SDS011;4349;47.552;8.904;2023-04-24T07:08:17;2.57;;;2.20;;
8622;SDS011;4349;47.552;8.904;2023-04-24T07:10:46;2.63;;;2.43;;
8622;SDS011;4349;47.552;8.904;2023-04-24T07:13:13;2.03;;;1.93;;
8622;SDS011;4349;47.552;8.904;2023-04-24T07:15:41;2.10;;;2.00;;
8622;SDS011;4349;47.552;8.904;2023-04-24T07:18:08;2.20;;;2.17;;
8622;SDS011;4349;47.552;8.904;2023-04-24T07:20:36;2.27;;;2.00;;
8622;SDS011;4349;47.552;8.904;2023-04-24T07:23:03;2.30;;;2.20;;
8622;SDS011;4349;47.552;8.904;2023-04-24T07:25:30;2.40;;;2.10;;
8622;SDS011;4349;47.552;8.904;2023-04-24T07:27:59;2.50;;;2.20;;
8622;SDS011;4349;47.552;8.904;2023-04-24T07:30:27;1.93;;;1.90;;
8622;SDS011;4349;47.552;8.904;2023-04-24T07:32:55;2.03;;;1.97;;
8622;SDS011;4349;47.552;8.904;2023-04-24T07:35:23;2.10;;;2.00;;
8622;SDS011;4349;47.552;8.904;2023-04-24T07:37:51;1.77;;;1.70;;
8622;SDS011;4349;47.552;8.904;2023-04-24T07:40:19;1.87;;;1.83;;
8622;SDS011;4349;47.552;8.904;2023-04-24T07:42:47;1.87;;;1.80;;
8622;SDS011;4349;47.552;8.904;2023-04-24T07:45:16;1.83;;;1.80;;
8622;SDS011;4349;47.552;8.904;2023-04-24T07:47:44;1.60;;;1.60;;
8622;SDS011;4349;47.552;8.904;2023-04-24T07:50:12;3.33;;;1.90;;
8622;SDS011;4349;47.552;8.904;2023-04-24T07:52:39;2.57;;;1.83;;
8622;SDS011;4349;47.552;8.904;2023-04-24T07:55:07;1.77;;;1.67;;
8622;SDS011;4349;47.552;8.904;2023-04-24T07:57:34;1.83;;;1.73;;
8622;SDS011;4349;47.552;8.904;2023-04-24T08:00:03;2.10;;;1.40;;
8622;SDS011;4349;47.552;8.904;2023-04-24T08:02:37;1.97;;;1.87;;
8622;SDS011;4349;47.552;8.904;2023-04-24T08:05:05;1.83;;;1.67;;
8622;SDS011;4349;47.552;8.904;2023-04-24T08:07:33;2.10;;;1.90;;
8622;SDS011;4349;47.552;8.904;2023-04-24T08:10:02;3.27;;;2.10;;
8622;SDS011;4349;47.552;8.904;2023-04-24T08:12:29;2.47;;;2.27;;
8622;SDS011;4349;47.552;8.904;2023-04-24T08:14:57;2.70;;;2.40;;
8622;SDS011;4349;47.552;8.904;2023-04-24T08:17:24;2.53;;;2.33;;
8622;SDS011;4349;47.552;8.904;2023-04-24T08:19:53;2.53;;;2.43;;
8622;SDS011;4349;47.552;8.904;2023-04-24T08:22:27;3.60;;;2.37;;
8622;SDS011;4349;47.552;8.904;2023-04-24T08:24:54;3.57;;;2.50;;
8622;SDS011;4349;47.552;8.904;2023-04-24T08:27:23;2.63;;;2.53;;
8622;SDS011;4349;47.552;8.904;2023-04-24T08:29:50;2.93;;;2.73;;
8622;SDS011;4349;47.552;8.904;2023-04-24T08:32:17;3.20;;;2.90;;
8622;SDS011;4349;47.552;8.904;2023-04-24T08:34:45;3.03;;;2.83;;
8622;SDS011;4349;47.552;8.904;2023-04-24T08:37:16;3.10;;;2.90;;
8622;SDS011;4349;47.552;8.904;2023-04-24T08:39:43;2.70;;;2.60;;
8622;SDS011;4349;47.552;8.904;2023-04-24T08:42:11;3.03;;;2.80;;
8622;SDS011;4349;47.552;8.904;2023-04-24T08:44:40;3.30;;;3.00;;
8622;SDS011;4349;47.552;8.904;2023-04-24T08:47:08;5.23;;;3.17;;
8622;SDS011;4349;47.552;8.904;2023-04-24T08:49:35;3.33;;;2.80;;
8622;SDS011;4349;47.552;8.904;2023-04-24T08:52:04;3.43;;;2.70;;
8622;SDS011;4349;47.552;8.904;2023-04-24T08:54:33;3.00;;;2.80;;
8622;SDS011;4349;47.552;8.904;2023-04-24T08:57:01;2.93;;;2.67;;
8622;SDS011;4349;47.552;8.904;2023-04-24T08:59:29;2.67;;;2.47;;
8622;SDS011;4349;47.552;8.904;2023-04-24T09:01:57;3.10;;;2.40;;
8622;SDS011;4349;47.552;8.904;2023-04-24T09:04:25;2.90;;;2.70;;
8622;SDS011;4349;47.552;8.904;2023-04-24T09:06:55;2.90;;;2.70;;
8622;SDS011;4349;47.552;8.904;2023-04-24T09:09:23;2.97;;;2.70;;
8622;SDS011;4349;47.552;8.904;2023-04-24T09:11:52;2.90;;;2.70;;
8622;SDS011;4349;47.552;8.904;2023-04-24T09:14:21;3.07;;;2.80;;
8622;SDS011;4349;47.552;8.904;2023-04-24T09:16:50;3.03;;;2.83;;
8622;SDS011;4349;47.552;8.904;2023-04-24T09:19:17;3.03;;;2.70;;
8622;SDS011;4349;47.552;8.904;2023-04-24T09:21:45;3.07;;;2.83;;
8622;SDS011;4349;47.552;8.904;2023-04-24T09:24:16;3.23;;;3.00;;
8622;SDS011;4349;47.552;8.904;2023-04-24T09:26:44;3.07;;;2.83;;
8622;SDS011;4349;47.552;8.904;2023-04-24T09:29:15;3.00;;;2.80;;
8622;SDS011;4349;47.552;8.904;2023-04-24T09:31:43;3.00;;;2.80;;
8622;SDS011;4349;47.552;8.904;2023-04-24T09:34:11;2.80;;;2.60;;
8622;SDS011;4349;47.552;8.904;2023-04-24T09:36:40;2.80;;;2.60;;
8622;SDS011;4349;47.552;8.904;2023-04-24T09:39:09;3.33;;;3.13;;
8622;SDS011;4349;47.552;8.904;2023-04-24T09:41:43;2.70;;;2.60;;
8622;SDS011;4349;47.552;8.904;2023-04-24T09:44:11;2.50;;;2.40;;
8622;SDS011;4349;47.552;8.904;2023-04-24T09:46:40;5.27;;;2.50;;
8622;SDS011;4349;47.552;8.904;2023-04-24T09:49:11;3.00;;;2.60;;
8622;SDS011;4349;47.552;8.904;2023-04-24T09:51:38;2.90;;;2.43;;
8622;SDS011;4349;47.552;8.904;2023-04-24T09:54:11;2.77;;;2.47;;
8622;SDS011;4349;47.552;8.904;2023-04-24T09:56:41;2.37;;;2.27;;
8622;SDS011;4349;47.552;8.904;2023-04-24T09:59:09;2.73;;;2.30;;
8622;SDS011;4349;47.552;8.904;2023-04-24T10:01:36;4.20;;;3.80;;
8622;SDS011;4349;47.552;8.904;2023-04-24T10:04:16;2.80;;;2.60;;
8622;SDS011;4349;47.552;8.904;2023-04-24T10:06:44;2.90;;;2.37;;
8622;SDS011;4349;47.552;8.904;2023-04-24T10:09:12;2.37;;;2.20;;
8622;SDS011;4349;47.552;8.904;2023-04-24T10:11:41;2.50;;;2.20;;
8622;SDS011;4349;47.552;8.904;2023-04-24T10:14:09;3.40;;;3.10;;
8622;SDS011;4349;47.552;8.904;2023-04-24T10:16:38;2.73;;;2.50;;
8622;SDS011;4349;47.552;8.904;2023-04-24T10:19:06;2.53;;;2.33;;
8622;SDS011;4349;47.552;8.904;2023-04-24T10:21:35;2.57;;;2.47;;
8622;SDS011;4349;47.552;8.904;2023-04-24T10:24:04;2.77;;;2.50;;
8622;SDS011;4349;47.552;8.904;2023-04-24T10:26:33;2.73;;;2.53;;
8622;SDS011;4349;47.552;8.904;2023-04-24T10:29:01;2.53;;;2.40;;
8622;SDS011;4349;47.552;8.904;2023-04-24T10:31:31;2.70;;;2.37;;
8622;SDS011;4349;47.552;8.904;2023-04-24T10:33:58;2.67;;;2.47;;
8622;SDS011;4349;47.552;8.904;2023-04-24T10:36:26;3.00;;;2.73;;
8622;SDS011;4349;47.552;8.904;2023-04-24T10:38:55;2.47;;;2.27;;
8622;SDS011;4349;47.552;8.904;2023-04-24T10:41:24;2.30;;;2.20;;
8622;SDS011;4349;47.552;8.904;2023-04-24T10:44:03;3.07;;;2.27;;
8622;SDS011;4349;47.552;8.904;2023-04-24T10:46:31;4.00;;;2.57;;
8622;SDS011;4349;47.552;8.904;2023-04-24T10:48:58;2.93;;;2.30;;
8622;SDS011;4349;47.552;8.904;2023-04-24T10:51:42;3.13;;;2.10;;
8622;SDS011;4349;47.552;8.904;2023-04-24T10:54:22;2.27;;;2.13;;
8622;SDS011;4349;47.552;8.904;2023-04-24T10:56:50;2.10;;;2.00;;
8622;SDS011;4349;47.552;8.904;2023-04-24T10:59:24;2.00;;;1.90;;
8622;SDS011;4349;47.552;8.904;2023-04-24T11:01:55;2.30;;;2.10;;
8622;SDS011;4349;47.552;8.904;2023-04-24T11:04:29;1.97;;;1.93;;
8622;SDS011;4349;47.552;8.904;2023-04-24T11:06:57;3.77;;;2.10;;
8622;SDS011;4349;47.552;8.904;2023-04-24T11:09:27;2.50;;;2.40;;
8622;SDS011;4349;47.552;8.904;2023-04-24T11:12:02;4.43;;;2.20;;
8622;SDS011;4349;47.552;8.904;2023-04-24T11:14:30;3.23;;;2.60;;
8622;SDS011;4349;47.552;8.904;2023-04-24T11:16:57;2.00;;;1.90;;
8622;SDS011;4349;47.552;8.904;2023-04-24T11:19:26;2.90;;;2.60;;
8622;SDS011;4349;47.552;8.904;2023-04-24T11:21:56;2.73;;;2.53;;
8622;SDS011;4349;47.552;8.904;2023-04-24T11:24:25;3.67;;;1.93;;
8622;SDS011;4349;47.552;8.904;2023-04-24T11:26:54;2.10;;;2.00;;
8622;SDS011;4349;47.552;8.904;2023-04-24T11:29:22;2.40;;;2.30;;
8622;SDS011;4349;47.552;8.904;2023-04-24T11:31:51;2.90;;;2.23;;
8622;SDS011;4349;47.552;8.904;2023-04-24T11:34:18;2.40;;;2.10;;
8622;SDS011;4349;47.552;8.904;2023-04-24T11:36:46;2.47;;;2.30;;
8622;SDS011;4349;47.552;8.904;2023-04-24T11:39:14;2.50;;;2.30;;
8622;SDS011;4349;47.552;8.904;2023-04-24T11:41:41;3.03;;;1.93;;
8622;SDS011;4349;47.552;8.904;2023-04-24T11:44:10;4.07;;;2.07;;
8622;SDS011;4349;47.552;8.904;2023-04-24T11:46:38;2.20;;;2.00;;
8622;SDS011;4349;47.552;8.904;2023-04-24T11:49:06;2.17;;;2.07;;
8622;SDS011;4349;47.552;8.904;2023-04-24T11:51:34;2.50;;;2.07;;
8622;SDS011;4349;47.552;8.904;2023-04-24T11:54:13;2.03;;;1.90;;
8622;SDS011;4349;47.552;8.904;2023-04-24T11:56:44;2.57;;;2.27;;
8622;SDS011;4349;47.552;8.904;2023-04-24T11:59:13;2.87;;;2.13;;
8622;SDS011;4349;47.552;8.904;2023-04-24T12:01:43;2.23;;;2.00;;
8622;SDS011;4349;47.552;8.904;2023-04-24T12:04:11;2.20;;;2.10;;
8622;SDS011;4349;47.552;8.904;2023-04-24T12:06:39;2.57;;;2.37;;
8622;SDS011;4349;47.552;8.904;2023-04-24T12:09:07;2.10;;;2.00;;
8622;SDS011;4349;47.552;8.904;2023-04-24T12:11:52;2.07;;;1.90;;
8622;SDS011;4349;47.552;8.904;2023-04-24T12:14:21;2.73;;;2.13;;
8622;SDS011;4349;47.552;8.904;2023-04-24T12:16:48;2.10;;;2.00;;
8622;SDS011;4349;47.552;8.904;2023-04-24T12:19:17;12.73;;;3.17;;
8622;SDS011;4349;47.552;8.904;2023-04-24T12:21:58;3.33;;;2.07;;
8622;SDS011;4349;47.552;8.904;2023-04-24T12:24:25;2.23;;;2.13;;
8622;SDS011;4349;47.552;8.904;2023-04-24T12:26:53;2.00;;;1.90;;
8622;SDS011;4349;47.552;8.904;2023-04-24T12:29:22;1.93;;;1.90;;
8622;SDS011;4349;47.552;8.904;2023-04-24T12:31:49;2.67;;;2.13;;
8622;SDS011;4349;47.552;8.904;2023-04-24T12:34:17;2.03;;;1.93;;
8622;SDS011;4349;47.552;8.904;2023-04-24T12:36:45;2.00;;;1.70;;
8622;SDS011;4349;47.552;8.904;2023-04-24T12:39:15;2.00;;;1.90;;
8622;SDS011;4349;47.552;8.904;2023-04-24T12:41:50;2.10;;;1.90;;
8622;SDS011;4349;47.552;8.904;2023-04-24T12:44:18;2.10;;;2.00;;
8622;SDS011;4349;47.552;8.904;2023-04-24T12:46:47;2.17;;;1.87;;
8622;SDS011;4349;47.552;8.904;2023-04-24T12:49:14;2.10;;;2.00;;
8622;SDS011;4349;47.552;8.904;2023-04-24T12:51:42;1.83;;;1.83;;
8622;SDS011;4349;47.552;8.904;2023-04-24T12:54:09;4.63;;;2.20;;
8622;SDS011;4349;47.552;8.904;2023-04-24T12:56:38;2.20;;;2.10;;
8622;SDS011;4349;47.552;8.904;2023-04-24T12:59:05;2.07;;;1.97;;
8622;SDS011;4349;47.552;8.904;2023-04-24T13:01:32;2.00;;;1.90;;
8622;SDS011;4349;47.552;8.904;2023-04-24T13:04:01;2.60;;;2.40;;
8622;SDS011;4349;47.552;8.904;2023-04-24T13:06:29;1.93;;;1.83;;
8622;SDS011;4349;47.552;8.904;2023-04-24T13:08:57;2.27;;;2.10;;
8622;SDS011;4349;47.552;8.904;2023-04-24T13:11:25;2.13;;;2.00;;
8622;SDS011;4349;47.552;8.904;2023-04-24T13:13:52;2.30;;;2.10;;
8622;SDS011;4349;47.552;8.904;2023-04-24T13:16:20;2.03;;;1.93;;
8622;SDS011;4349;47.552;8.904;2023-04-24T13:18:50;2.50;;;2.40;;
8622;SDS011;4349;47.552;8.904;2023-04-24T13:21:19;2.60;;;2.03;;
8622;SDS011;4349;47.552;8.904;2023-04-24T13:23:46;2.63;;;2.03;;
8622;SDS011;4349;47.552;8.904;2023-04-24T13:26:13;3.73;;;2.40;;
8622;SDS011;4349;47.552;8.904;2023-04-24T13:28:41;2.53;;;2.33;;
8622;SDS011;4349;47.552;8.904;2023-04-24T13:31:08;1.90;;;1.80;;
8622;SDS011;4349;47.552;8.904;2023-04-24T13:33:36;1.90;;;1.80;;
8622;SDS011;4349;47.552;8.904;2023-04-24T13:36:03;3.20;;;1.93;;
8622;SDS011;4349;47.552;8.904;2023-04-24T13:38:32;2.80;;;1.90;;
8622;SDS011;4349;47.552;8.904;2023-04-24T13:41:00;1.73;;;1.73;;
8622;SDS011;4349;47.552;8.904;2023-04-24T13:43:27;2.17;;;2.07;;
8622;SDS011;4349;47.552;8.904;2023-04-24T13:45:54;1.97;;;1.87;;
8622;SDS011;4349;47.552;8.904;2023-04-24T13:48:22;1.60;;;1.60;;
8622;SDS011;4349;47.552;8.904;2023-04-24T13:50:49;1.90;;;1.80;;
8622;SDS011;4349;47.552;8.904;2023-04-24T13:53:17;2.00;;;1.90;;
8622;SDS011;4349;47.552;8.904;2023-04-24T13:55:45;1.80;;;1.70;;
8622;SDS011;4349;47.552;8.904;2023-04-24T13:58:13;1.77;;;1.67;;
8622;SDS011;4349;47.552;8.904;2023-04-24T14:00:41;2.20;;;2.10;;
8622;SDS011;4349;47.552;8.904;2023-04-24T14:03:08;2.63;;;1.77;;
8622;SDS011;4349;47.552;8.904;2023-04-24T14:05:36;4.47;;;1.70;;
8622;SDS011;4349;47.552;8.904;2023-04-24T14:08:04;1.80;;;1.80;;
8622;SDS011;4349;47.552;8.904;2023-04-24T14:10:32;2.40;;;1.90;;
8622;SDS011;4349;47.552;8.904;2023-04-24T14:13:00;2.83;;;1.80;;
8622;SDS011;4349;47.552;8.904;2023-04-24T14:15:28;1.50;;;1.50;;
8622;SDS011;4349;47.552;8.904;2023-04-24T14:17:55;1.50;;;1.50;;
8622;SDS011;4349;47.552;8.904;2023-04-24T14:20:23;1.77;;;1.70;;
8622;SDS011;4349;47.552;8.904;2023-04-24T14:22:50;2.30;;;1.80;;
8622;SDS011;4349;47.552;8.904;2023-04-24T14:25:18;1.97;;;1.80;;
8622;SDS011;4349;47.552;8.904;2023-04-24T14:27:45;2.13;;;1.87;;
8622;SDS011;4349;47.552;8.904;2023-04-24T14:30:14;1.60;;;1.50;;
8622;SDS011;4349;47.552;8.904;2023-04-24T14:32:42;1.77;;;1.67;;
8622;SDS011;4349;47.552;8.904;2023-04-24T14:35:09;1.60;;;1.60;;
8622;SDS011;4349;47.552;8.904;2023-04-24T14:37:37;2.23;;;2.10;;
8622;SDS011;4349;47.552;8.904;2023-04-24T14:40:07;3.27;;;2.03;;
8622;SDS011;4349;47.552;8.904;2023-04-24T14:42:55;3.70;;;1.90;;
8622;SDS011;4349;47.552;8.904;2023-04-24T14:45:25;2.17;;;2.03;;
8622;SDS011;4349;47.552;8.904;2023-04-24T14:47:53;2.13;;;1.80;;
8622;SDS011;4349;47.552;8.904;2023-04-24T14:50:20;1.60;;;1.60;;
8622;SDS011;4349;47.552;8.904;2023-04-24T14:52:51;1.77;;;1.67;;
8622;SDS011;4349;47.552;8.904;2023-04-24T14:55:18;2.30;;;1.80;;
8622;SDS011;4349;47.552;8.904;2023-04-24T14:57:46;2.27;;;2.17;;
8622;SDS011;4349;47.552;8.904;2023-04-24T15:00:14;2.20;;;2.10;;
8622;SDS011;4349;47.552;8.904;2023-04-24T15:02:44;2.00;;;1.80;;
8622;SDS011;4349;47.552;8.904;2023-04-24T15:05:12;2.17;;;1.90;;
8622;SDS011;4349;47.552;8.904;2023-04-24T15:07:40;1.80;;;1.70;;
8622;SDS011;4349;47.552;8.904;2023-04-24T15:10:08;2.80;;;1.90;;
8622;SDS011;4349;47.552;8.904;2023-04-24T15:12:35;2.00;;;1.90;;
8622;SDS011;4349;47.552;8.904;2023-04-24T15:15:03;2.30;;;2.10;;
8622;SDS011;4349;47.552;8.904;2023-04-24T15:17:31;2.17;;;2.07;;
8622;SDS011;4349;47.552;8.904;2023-04-24T15:20:00;1.60;;;1.50;;
8622;SDS011;4349;47.552;8.904;2023-04-24T15:22:28;2.10;;;2.00;;
8622;SDS011;4349;47.552;8.904;2023-04-24T15:24:56;2.07;;;1.97;;